METAR Data
IDs: Format: Raw Decoded Include TAF

Data at: 2259 UTC 30 Jun 2022

METAR for:KDCM (Chester Muni, SC, US)
Text:KDCM 302235Z AUTO 16005KT 10SM CLR 28/20 A3015 RMK AO2
Temperature: 28.0°C ( 82°F)
Dewpoint: 20.0°C ( 68°F) [RH = 62%]
Pressure (altimeter):30.15 inches Hg (1021.1 mb)
Winds:from the SSE (160 degrees) at 6 MPH (5 knots; 2.6 m/s)
Visibility:10 or more sm (16+ km)
Ceiling:at least 12,000 feet AGL
Clouds:sky clear below 12,000 feet AGL
QC Flag:automated observation with no human augmentation

TAF for:KDCM (Chester Muni, SC, US)
Text:No data found